Nearby METAR Reports

 

KSJC - San Jose, California, USA
Distance from station: NE 9mi, 14km
Updated: Tue, 16-Jul-2019 11:53pm PDT
Few Clouds
Few Clouds
 Wind from NNW
Wind: NNW 8 mph , 13 km/h
Temperature: 61°F , 16°C
Dew Point: 57°F , 14°C
Humidity: 88%
Barometer: 29.90 inHg , 1012.5 hPa
Clouds: Few Clouds
Visibility: 10 miles , 16 km
Cloud details: Few Clouds 1000 ft
Few Clouds 8000 ft
2019/07/17 06:53 KSJC 170653Z 33007KT 10SM FEW010 FEW080 16/14 A2990 RMK AO2 SLP125 LAST T01610139 $
KNUQ - Moffett Nas/Mtn, California, USA
Distance from station: N 9mi, 14km
Updated: Tue, 16-Jul-2019 11:56pm PDT
Clear
Clear
 Wind from NNE
Wind: NNE 7 mph , 11 km/h
Temperature: 63°F , 17°C
Dew Point: 55°F , 13°C
Humidity: 77%
Barometer: 29.91 inHg , 1012.9 hPa
Clouds: Clear
Visibility: 10 miles , 16 km
2019/07/17 06:56 KNUQ 170656Z 02006KT 10SM CLR 17/13 A2991 RMK AO2 SLP130 T01670133 $
 
KPAO - Palo Alto, California, USA
Distance from station: NNW 14mi, 23km
Updated: Tue, 16-Jul-2019 8:47pm PDT
NOT Current
Partly cloudy
Partly cloudy
 Wind from NW
Wind: NW 8 mph , 13 km/h
Temperature: 64°F , 18°C
Dew Point: 48°F , 9°C
Humidity: 56%
Barometer: 29.92 inHg , 1013.2 hPa
Clouds: Partly cloudy
Visibility: 10 miles , 16 km
Cloud details: Few Clouds 3000 ft
Partly cloudy 12000 ft
2019/07/17 03:47 KPAO 170347Z 31007KT 10SM FEW030 SCT120 18/09 A2992 RMK LAST
KRHV - San Jose/Reid, California, USA
Distance from station: ENE 12mi, 19km
Updated: Tue, 16-Jul-2019 9:54pm PDT
NOT Current
Few Clouds
Few Clouds
 Wind from NW
Wind: NW 5 mph , 7 km/h
Temperature: 68°F , 20°C
Dew Point: 48°F , 9°C
Humidity: 49%
Barometer: 29.91 inHg , 1012.9 hPa
Clouds: Few Clouds
Visibility: 10 miles , 16 km
Cloud details: Few Clouds 15000 ft
2019/07/17 04:54 KRHV 170454Z 32004KT 10SM FEW150 20/09 A2991
 
KOAK - Oakland, California, USA
Distance from station: NNW 31mi, 50km
Updated: Tue, 16-Jul-2019 11:53pm PDT
Overcast
Overcast
 Wind from SW
Wind: SW 8 mph , 13 km/h
Temperature: 61°F , 16°C
Dew Point: 54°F , 12°C
Humidity: 77%
Barometer: 29.90 inHg , 1012.5 hPa
Clouds: Overcast
Visibility: 10 miles , 16 km
Cloud details: Few Clouds 700 ft
Overcast 1100 ft
2019/07/17 06:53 KOAK 170653Z 23007KT 10SM FEW007 OVC011 16/12 A2990 RMK AO2 SLP125 T01610122
KSQL - San Carlos Airpo, California, USA
Distance from station: NW 21mi, 34km
Updated: Tue, 16-Jul-2019 8:58pm PDT
NOT Current
Mostly cloudy
Mostly cloudy
 Wind from WSW
Wind: WSW 7 mph , 11 km/h
Temperature: 61°F , 16°C
Dew Point: 55°F , 13°C
Humidity: 83%
Barometer: 29.91 inHg , 1012.9 hPa
Clouds: Mostly cloudy
Visibility: 10 miles , 16 km
Cloud details: Few Clouds 1000 ft
Mostly cloudy 20000 ft
2019/07/17 03:58 KSQL 170358Z 25006KT 10SM FEW010 BKN200 16/13 A2991 RMK LAST
 
KSFO - San Francisco, California, USA
Distance from station: NW 30mi, 49km
Updated: Tue, 16-Jul-2019 11:56pm PDT
Mostly cloudy
Mostly cloudy
 Wind from WSW
Wind: WSW 9 mph , 15 km/h, Gust: 21 mph , 33 km/h
Temperature: 61°F , 16°C
Dew Point: 54°F , 12°C
Humidity: 77%
Barometer: 29.90 inHg , 1012.5 hPa
Clouds: Mostly cloudy
Visibility: 10 miles , 16 km
Cloud details: Few Clouds 600 ft
Mostly cloudy 800 ft
2019/07/17 06:56 KSFO 170656Z 25008G18KT 10SM FEW006 BKN008 16/12 A2990 RMK AO2 SLP124 T01560122
KE16 - San Martin, California, USA
Distance from station: ESE 27mi, 43km
Updated: Wed, 17-Jul-2019 12:30am PDT
Clear
Clear
 Wind from ESE
Wind: ESE 13 mph , 20 km/h
Temperature: 57°F , 14°C
Dew Point: 54°F , 12°C
Humidity: 88%
Barometer: 29.93 inHg , 1013.5 hPa
Clouds: Clear
Visibility: 10 miles , 16 km
2019/07/17 07:30 KE16 170730Z AUTO 12011KT 10SM CLR 14/12 A2993 RMK AO2 PWINO PNO
 
KWVI - Watsonville, California, USA
Distance from station: SSE 27mi, 44km
Updated: Tue, 16-Jul-2019 11:53pm PDT
Overcast
Overcast
 Wind from calm
Wind: Calm
Temperature: 57°F , 14°C
Dew Point: 54°F , 12°C
Humidity: 88%
Barometer: 29.94 inHg , 1013.9 hPa
Clouds: Overcast
Visibility: 10 miles , 16 km
Cloud details: Overcast 600 ft
2019/07/17 06:53 KWVI 170653Z AUTO 00000KT 10SM OVC006 14/12 A2994 RMK AO2 SLP138 T01440122
KHAF - Half Moon Bay, California, USA
Distance from station: WNW 31mi, 50km
Updated: Wed, 17-Jul-2019 12:40am PDT
Overcast
Overcast
 Wind from NW
Wind: NW 7 mph , 11 km/h
Temperature: 57°F , 14°C
Dew Point: 55°F , 13°C
Humidity: 94%
Barometer: 29.93 inHg , 1013.5 hPa
Clouds: Overcast
Visibility: 7 miles , 11 km
Cloud details: Overcast 800 ft
2019/07/17 07:40 KHAF 170740Z AUTO 31006KT 7SM OVC008 14/13 A2993 RMK AO2
 
KHWD - Hayward, California, USA
Distance from station: N 28mi, 44km
Updated: Tue, 16-Jul-2019 11:54pm PDT
Overcast
Overcast
 Wind from W
Wind: W 8 mph , 13 km/h
Temperature: 61°F , 16°C
Dew Point: 55°F , 13°C
Humidity: 83%
Barometer: 29.91 inHg , 1012.9 hPa
Clouds: Overcast
Visibility: 10 miles , 16 km
Cloud details: Overcast 1000 ft
2019/07/17 06:54 KHWD 170654Z AUTO 26007KT 10SM OVC010 16/13 A2991 RMK AO2 SLP136 T01560128
KLVK - Livermore, California, USA
Distance from station: NNE 31mi, 51km
Updated: Tue, 16-Jul-2019 11:53pm PDT
Clear
Clear
 Wind from W
Wind: W 6 mph , 9 km/h
Temperature: 57°F , 14°C
Dew Point: 54°F , 12°C
Humidity: 88%
Barometer: 29.89 inHg , 1012.2 hPa
Clouds: Clear
Visibility: 10 miles , 16 km
2019/07/17 06:53 KLVK 170653Z AUTO 27005KT 10SM CLR 14/12 A2989 RMK AO2 SLP119 T01440117